createdAt,value
2018-06-04T00:01:25.703Z,16.40
2018-06-04T00:03:53.764Z,17.23
2018-06-04T00:06:21.940Z,16.07
2018-06-04T00:08:50.097Z,17.33
2018-06-04T00:11:18.363Z,17.87
2018-06-04T00:13:46.430Z,16.80
2018-06-04T00:16:14.757Z,17.40
2018-06-04T00:18:42.809Z,16.37
2018-06-04T00:21:11.048Z,16.40
2018-06-04T00:23:39.133Z,16.23
2018-06-04T00:26:07.410Z,16.73
2018-06-04T00:28:35.653Z,16.80
2018-06-04T00:31:03.925Z,16.33
2018-06-04T00:33:32.475Z,16.43
2018-06-04T00:36:00.694Z,15.97
2018-06-04T00:38:28.956Z,15.93
2018-06-04T00:40:57.049Z,15.20
2018-06-04T00:43:25.169Z,15.63
2018-06-04T00:45:53.255Z,17.43
2018-06-04T00:48:21.498Z,16.73
2018-06-04T00:50:49.697Z,16.53
2018-06-04T00:53:17.892Z,16.97
2018-06-04T00:55:56.952Z,17.40
2018-06-04T00:58:25.045Z,16.10
2018-06-04T01:00:53.758Z,14.80
2018-06-04T01:03:22.157Z,16.27
2018-06-04T01:05:50.373Z,14.67
2018-06-04T01:08:18.702Z,14.83
2018-06-04T01:10:46.869Z,16.10
2018-06-04T01:13:21.724Z,14.67
2018-06-04T01:15:50.136Z,15.20
2018-06-04T01:18:18.307Z,14.27
2018-06-04T01:20:46.601Z,14.47
2018-06-04T01:23:14.726Z,13.20
2018-06-04T01:25:42.993Z,13.90
2018-06-04T01:28:11.113Z,14.80
2018-06-04T01:30:39.247Z,14.10
2018-06-04T01:33:07.588Z,12.33
2018-06-04T01:35:35.685Z,13.87
2018-06-04T01:38:03.781Z,13.03
2018-06-04T01:40:32.096Z,12.83
2018-06-04T01:43:00.263Z,11.97
2018-06-04T01:45:28.556Z,13.03
2018-06-04T01:47:56.738Z,11.97
2018-06-04T01:50:24.914Z,11.57
2018-06-04T01:52:53.165Z,12.67
2018-06-04T01:55:21.273Z,11.33
2018-06-04T01:57:49.449Z,11.90
2018-06-04T02:00:17.557Z,11.47
2018-06-04T02:02:45.737Z,13.10
2018-06-04T02:05:13.918Z,11.97
2018-06-04T02:07:42.282Z,12.37
2018-06-04T02:10:10.523Z,15.40
2018-06-04T02:12:38.782Z,13.23
2018-06-04T02:15:06.932Z,13.07
2018-06-04T02:17:35.102Z,12.37
2018-06-04T02:20:03.335Z,12.70
2018-06-04T02:22:31.600Z,12.23
2018-06-04T02:24:59.853Z,11.37
2018-06-04T02:27:28.161Z,11.30
2018-06-04T02:29:56.292Z,12.60
2018-06-04T02:32:24.522Z,10.97
2018-06-04T02:34:53.200Z,11.47
2018-06-04T02:37:21.371Z,11.40
2018-06-04T02:39:49.685Z,12.07
2018-06-04T02:42:17.834Z,11.40
2018-06-04T02:44:46.182Z,11.53
2018-06-04T02:47:14.462Z,13.50
2018-06-04T02:49:42.780Z,13.27
2018-06-04T02:52:11.057Z,15.23
2018-06-04T02:54:39.522Z,14.87
2018-06-04T02:57:07.769Z,16.27
2018-06-04T02:59:36.015Z,15.80
2018-06-04T03:02:04.252Z,13.50
2018-06-04T03:04:33.077Z,14.63
2018-06-04T03:07:01.353Z,14.60
2018-06-04T03:09:29.495Z,13.70
2018-06-04T03:11:57.629Z,13.43
2018-06-04T03:14:26.121Z,14.13
2018-06-04T03:16:54.324Z,13.23
2018-06-04T03:19:22.826Z,14.33
2018-06-04T03:21:51.124Z,13.03
2018-06-04T03:24:19.422Z,13.63
2018-06-04T03:26:47.741Z,14.30
2018-06-04T03:29:16.496Z,14.83
2018-06-04T03:31:45.068Z,14.30
2018-06-04T03:34:13.283Z,14.00
2018-06-04T03:36:41.512Z,15.07
2018-06-04T03:39:09.600Z,15.27
2018-06-04T03:41:37.705Z,15.57
2018-06-04T03:44:06.029Z,16.17
2018-06-04T03:46:34.192Z,20.80
2018-06-04T03:49:02.529Z,19.73
2018-06-04T03:51:30.767Z,18.67
2018-06-04T03:53:59.135Z,17.13
2018-06-04T03:56:27.413Z,17.20
2018-06-04T03:58:55.564Z,15.63
2018-06-04T04:01:23.747Z,14.97
2018-06-04T04:03:51.941Z,17.10
2018-06-04T04:06:20.076Z,17.97
2018-06-04T04:08:48.209Z,18.00
2018-06-04T04:11:16.424Z,17.23
2018-06-04T04:13:44.504Z,16.13
2018-06-04T04:16:12.585Z,17.23
2018-06-04T04:18:40.739Z,16.63
2018-06-04T04:21:08.865Z,17.20
2018-06-04T04:23:37.057Z,16.63
2018-06-04T04:26:05.422Z,17.33
2018-06-04T04:28:33.516Z,17.20
2018-06-04T04:31:01.660Z,17.83
2018-06-04T04:33:29.754Z,18.17
2018-06-04T04:35:58.065Z,17.67
2018-06-04T04:38:26.628Z,18.87
2018-06-04T04:40:54.772Z,17.73
2018-06-04T04:43:22.909Z,17.20
2018-06-04T04:45:51.162Z,17.47
2018-06-04T04:48:19.341Z,17.87
2018-06-04T04:50:47.392Z,18.30
2018-06-04T04:53:15.445Z,18.40
2018-06-04T04:55:43.685Z,17.77
2018-06-04T04:58:11.785Z,18.77
2018-06-04T05:00:40.005Z,19.37
2018-06-04T05:03:08.037Z,18.53
2018-06-04T05:05:36.113Z,18.50
2018-06-04T05:08:04.396Z,18.70
2018-06-04T05:10:32.550Z,18.67
2018-06-04T05:13:00.737Z,18.53
2018-06-04T05:15:29.075Z,17.07
2018-06-04T05:17:57.383Z,17.60
2018-06-04T05:20:25.476Z,17.43
2018-06-04T05:22:53.671Z,17.80
2018-06-04T05:25:21.697Z,17.50
2018-06-04T05:27:49.732Z,16.60
2018-06-04T05:30:18.036Z,17.03
2018-06-04T05:32:46.176Z,17.97
2018-06-04T05:35:14.393Z,17.00
2018-06-04T05:37:42.573Z,16.57
2018-06-04T05:40:10.696Z,15.63
2018-06-04T05:42:38.855Z,16.27
2018-06-04T05:45:07.157Z,16.07
2018-06-04T05:47:35.266Z,14.40
2018-06-04T05:50:03.750Z,15.27
2018-06-04T05:52:31.914Z,16.17
2018-06-04T05:55:00.037Z,17.27
2018-06-04T05:57:28.217Z,15.73
2018-06-04T05:59:56.521Z,15.40
2018-06-04T06:02:24.761Z,15.27
2018-06-04T06:04:52.911Z,15.77
2018-06-04T06:07:21.093Z,16.13
2018-06-04T06:09:49.392Z,16.10
2018-06-04T06:12:17.510Z,16.83
2018-06-04T06:14:45.668Z,16.13
2018-06-04T06:17:13.793Z,16.10
2018-06-04T06:19:42.056Z,16.93
2018-06-04T06:22:10.268Z,16.00
2018-06-04T06:24:38.377Z,15.43
2018-06-04T06:27:06.499Z,16.40
2018-06-04T06:29:34.760Z,15.60
2018-06-04T06:32:03.115Z,14.63
2018-06-04T06:34:31.270Z,14.03
2018-06-04T06:36:59.380Z,13.10
2018-06-04T06:39:27.724Z,12.93
2018-06-04T06:41:55.803Z,13.73
2018-06-04T06:44:24.128Z,13.80
2018-06-04T06:46:52.164Z,12.77
2018-06-04T06:49:20.204Z,11.97
2018-06-04T06:51:48.295Z,12.37
2018-06-04T06:54:16.517Z,13.90
2018-06-04T06:56:44.721Z,12.67
2018-06-04T06:59:12.769Z,11.90
2018-06-04T07:01:40.981Z,12.83
2018-06-04T07:04:09.191Z,11.30
2018-06-04T07:06:37.259Z,11.30
2018-06-04T07:09:07.865Z,10.97
2018-06-04T07:11:35.921Z,10.43
2018-06-04T07:14:04.260Z,10.43
2018-06-04T07:16:32.420Z,10.70
2018-06-04T07:19:00.572Z,11.27
2018-06-04T07:21:28.772Z,11.67
2018-06-04T07:23:56.940Z,11.17
2018-06-04T07:26:25.123Z,9.57
2018-06-04T07:28:53.335Z,9.97
2018-06-04T07:31:21.445Z,9.60
2018-06-04T07:33:49.773Z,25.20
2018-06-04T07:36:17.957Z,9.70
2018-06-04T07:38:46.019Z,8.20
2018-06-04T07:41:14.252Z,8.53
2018-06-04T07:43:42.551Z,7.53
2018-06-04T07:46:10.729Z,7.63
2018-06-04T07:48:38.793Z,7.57
2018-06-04T07:51:06.880Z,7.83
2018-06-04T07:53:34.931Z,7.57
2018-06-04T07:56:03.061Z,8.73
2018-06-04T07:58:31.298Z,7.00
2018-06-04T08:00:59.445Z,7.67
2018-06-04T08:03:27.589Z,6.43
2018-06-04T08:05:55.803Z,6.13
2018-06-04T08:08:23.925Z,5.80
2018-06-04T08:10:52.087Z,5.63
2018-06-04T08:13:20.201Z,6.33
2018-06-04T08:15:48.193Z,6.57
2018-06-04T08:18:16.312Z,7.30
2018-06-04T08:20:44.446Z,6.30
2018-06-04T08:23:12.623Z,6.20
2018-06-04T08:25:40.787Z,5.50
2018-06-04T08:28:08.896Z,5.93
2018-06-04T08:30:36.977Z,5.60
2018-06-04T08:33:05.102Z,4.97
2018-06-04T08:35:33.119Z,5.83
2018-06-04T08:38:01.189Z,4.80
2018-06-04T08:40:29.307Z,4.60
2018-06-04T08:42:57.515Z,5.00
2018-06-04T08:45:25.714Z,5.40
2018-06-04T08:54:17.092Z,7.10
2018-06-04T08:56:45.329Z,5.03
2018-06-04T08:59:13.666Z,5.10
2018-06-04T09:01:41.749Z,4.07
2018-06-04T09:04:09.853Z,4.47
2018-06-04T09:06:37.965Z,4.70
2018-06-04T09:09:06.775Z,5.37
2018-06-04T09:11:34.970Z,4.77
2018-06-04T09:14:03.192Z,3.87
2018-06-04T09:16:31.317Z,3.70
2018-06-04T09:18:59.436Z,4.17
2018-06-04T09:24:18.969Z,4.03
2018-06-04T09:26:47.128Z,3.50
2018-06-04T09:29:15.221Z,4.30
2018-06-04T09:31:43.418Z,3.70
2018-06-04T09:34:11.517Z,3.50
2018-06-04T09:36:39.817Z,4.43
2018-06-04T09:39:08.052Z,3.57
2018-06-04T09:41:36.344Z,3.70
2018-06-04T09:44:04.468Z,4.53
2018-06-04T09:46:32.618Z,4.17
2018-06-04T09:49:00.667Z,3.60
2018-06-04T09:51:28.766Z,3.97
2018-06-04T09:53:57.097Z,3.20
2018-06-04T09:56:25.225Z,4.00
2018-06-04T09:58:53.354Z,3.83
2018-06-04T10:01:21.564Z,4.27
2018-06-04T10:03:49.765Z,3.33
2018-06-04T10:06:17.865Z,3.67
2018-06-04T10:08:45.921Z,3.80
2018-06-04T10:11:14.132Z,3.60
2018-06-04T10:13:42.171Z,3.83
2018-06-04T10:16:10.146Z,3.50
2018-06-04T10:18:38.134Z,4.57
2018-06-04T10:21:06.150Z,3.73
2018-06-04T10:23:34.218Z,4.00
2018-06-04T10:26:02.249Z,3.50
2018-06-04T10:28:30.322Z,3.43
2018-06-04T10:30:58.439Z,3.43
2018-06-04T10:33:26.509Z,3.77
2018-06-04T10:35:54.601Z,4.47
2018-06-04T10:38:22.678Z,4.33
2018-06-04T10:40:50.718Z,4.67
2018-06-04T10:43:18.802Z,3.70
2018-06-04T10:45:46.874Z,3.97
2018-06-04T10:48:15.046Z,3.80
2018-06-04T10:50:43.171Z,4.30
2018-06-04T10:53:11.188Z,4.13
2018-06-04T10:55:39.324Z,4.20
2018-06-04T10:58:07.773Z,4.10
2018-06-04T11:00:36.018Z,3.70
2018-06-04T11:03:04.055Z,4.60
2018-06-04T11:05:32.138Z,3.87
2018-06-04T11:08:00.277Z,3.43
2018-06-04T11:10:28.334Z,3.80
2018-06-04T11:12:56.371Z,3.53
2018-06-04T11:15:24.402Z,4.27
2018-06-04T11:17:52.420Z,4.23
2018-06-04T11:20:20.627Z,3.60
2018-06-04T11:22:48.663Z,3.80
2018-06-04T11:25:16.758Z,3.83
2018-06-04T11:27:44.949Z,3.63
2018-06-04T11:30:13.112Z,3.30
2018-06-04T11:32:41.255Z,2.90
2018-06-04T11:35:09.313Z,2.53
2018-06-04T11:37:37.492Z,2.37
2018-06-04T11:40:05.502Z,2.90
2018-06-04T11:42:33.567Z,3.30
2018-06-04T11:45:01.632Z,2.80
2018-06-04T11:47:29.791Z,2.70
2018-06-04T11:49:57.819Z,2.83
2018-06-04T11:52:25.853Z,3.10
2018-06-04T11:54:53.849Z,2.97
2018-06-04T11:57:22.014Z,2.80
2018-06-04T11:59:50.142Z,2.70
2018-06-04T12:02:18.127Z,3.03
2018-06-04T12:04:46.142Z,2.33
2018-06-04T12:07:14.168Z,2.40
2018-06-04T12:09:42.151Z,2.53
2018-06-04T12:12:10.255Z,2.80
2018-06-04T12:14:38.206Z,2.73
2018-06-04T12:17:06.334Z,2.73
2018-06-04T12:19:34.362Z,2.60
2018-06-04T12:22:02.430Z,2.73
2018-06-04T12:24:30.437Z,2.60
2018-06-04T12:26:58.617Z,2.50
2018-06-04T12:29:26.611Z,2.90
2018-06-04T12:31:54.724Z,2.90
2018-06-04T12:34:22.828Z,3.03
2018-06-04T12:36:50.910Z,3.00
2018-06-04T12:39:19.082Z,3.23
2018-06-04T12:41:47.182Z,3.00
2018-06-04T12:44:15.367Z,3.13
2018-06-04T12:46:43.478Z,3.10
2018-06-04T12:49:11.534Z,3.07
2018-06-04T12:51:39.758Z,2.93
2018-06-04T12:54:07.944Z,2.93
2018-06-04T12:56:36.090Z,3.73
2018-06-04T12:59:04.292Z,3.43
2018-06-04T13:01:32.427Z,3.83
2018-06-04T13:04:00.537Z,5.03
2018-06-04T13:06:28.744Z,5.27
2018-06-04T13:08:56.878Z,4.90
2018-06-04T13:11:24.934Z,4.60
2018-06-04T13:13:53.100Z,3.30
2018-06-04T13:16:21.296Z,3.70
2018-06-04T13:18:49.436Z,3.77
2018-06-04T13:21:17.615Z,4.10
2018-06-04T13:23:45.651Z,3.40
2018-06-04T13:26:13.854Z,3.67
2018-06-04T13:28:42.024Z,3.13
2018-06-04T13:31:10.217Z,3.30
2018-06-04T13:33:38.355Z,3.43
2018-06-04T13:36:06.480Z,3.50
2018-06-04T13:38:34.709Z,3.67
2018-06-04T13:41:02.711Z,4.10
2018-06-04T13:43:30.915Z,4.53
2018-06-04T13:45:59.145Z,3.97
2018-06-04T13:48:27.251Z,3.37
2018-06-04T13:50:55.414Z,4.17
2018-06-04T13:53:23.578Z,3.30
2018-06-04T13:55:51.656Z,3.30
2018-06-04T13:58:19.856Z,3.80
2018-06-04T14:00:47.879Z,3.50
2018-06-04T14:03:16.064Z,3.50
2018-06-04T14:05:44.144Z,4.10
2018-06-04T14:08:12.349Z,3.47
2018-06-04T14:10:40.520Z,3.20
2018-06-04T14:13:08.655Z,3.33
2018-06-04T14:15:36.793Z,3.23
2018-06-04T14:18:04.979Z,3.50
2018-06-04T14:20:33.051Z,3.83
2018-06-04T14:23:01.440Z,3.40
2018-06-04T14:25:29.771Z,4.33
2018-06-04T14:27:58.020Z,4.00
2018-06-04T14:30:26.265Z,3.63
2018-06-04T14:32:54.376Z,4.17
2018-06-04T14:35:22.450Z,3.13
2018-06-04T14:37:50.574Z,3.57
2018-06-04T14:40:18.635Z,4.70
2018-06-04T14:42:46.753Z,4.30
2018-06-04T14:45:14.803Z,3.80
2018-06-04T14:47:42.891Z,4.43
2018-06-04T14:50:10.953Z,4.20
2018-06-04T14:52:39.020Z,4.00
2018-06-04T14:55:07.233Z,4.47
2018-06-04T14:57:35.275Z,4.40
2018-06-04T15:00:03.739Z,5.13
2018-06-04T15:02:32.089Z,4.40
2018-06-04T15:05:00.228Z,4.37
2018-06-04T15:07:28.275Z,3.97
2018-06-04T15:09:56.396Z,5.13
2018-06-04T15:12:24.389Z,4.20
2018-06-04T15:14:52.560Z,4.80
2018-06-04T15:17:20.791Z,4.50
2018-06-04T15:19:49.072Z,5.80
2018-06-04T15:22:17.203Z,5.43
2018-06-04T15:24:45.255Z,5.37
2018-06-04T15:27:13.475Z,5.70
2018-06-04T15:29:41.713Z,5.40
2018-06-04T15:32:09.823Z,4.63
2018-06-04T15:34:38.006Z,5.13
2018-06-04T15:37:06.144Z,5.90
2018-06-04T15:39:34.318Z,6.20
2018-06-04T15:42:02.392Z,5.37
2018-06-04T15:44:30.507Z,11.80
2018-06-04T15:46:58.766Z,32.07
2018-06-04T15:49:26.889Z,7.03
2018-06-04T15:51:55.031Z,31.57
2018-06-04T15:54:23.148Z,58.17
2018-06-04T15:56:51.259Z,42.23
2018-06-04T15:59:19.321Z,10.67
2018-06-04T16:01:47.484Z,39.53
2018-06-04T16:04:15.614Z,47.97
2018-06-04T16:06:43.815Z,54.77
2018-06-04T16:09:12.266Z,7.30
2018-06-04T16:11:40.688Z,4.77
2018-06-04T16:14:09.160Z,5.43
2018-06-04T16:16:38.140Z,4.37
2018-06-04T16:19:06.633Z,4.20
2018-06-04T16:21:35.054Z,4.43
2018-06-04T16:24:03.522Z,4.17
2018-06-04T16:26:31.728Z,3.97
2018-06-04T16:28:59.974Z,4.37
2018-06-04T16:34:47.261Z,5.40
2018-06-04T16:37:15.672Z,5.70
2018-06-04T16:39:43.908Z,5.63
2018-06-04T16:42:12.088Z,6.37
2018-06-04T16:44:40.297Z,5.97
2018-06-04T16:47:08.402Z,5.90
2018-06-04T16:49:37.279Z,6.83
2018-06-04T16:52:05.390Z,5.83
2018-06-04T16:54:33.721Z,7.07
2018-06-04T16:57:01.900Z,6.20
2018-06-04T16:59:30.181Z,6.03
2018-06-04T17:01:59.064Z,7.33
2018-06-04T17:04:27.317Z,6.63
2018-06-04T17:06:58.771Z,5.57
2018-06-04T17:09:27.058Z,4.40
2018-06-04T17:11:55.071Z,4.50
2018-06-04T17:14:23.135Z,3.90
2018-06-04T17:16:51.258Z,4.10
2018-06-04T17:19:19.281Z,4.03
2018-06-04T17:21:47.388Z,3.67
2018-06-04T17:24:15.411Z,3.80
2018-06-04T17:26:43.583Z,3.50
2018-06-04T17:29:11.707Z,3.90
2018-06-04T17:31:39.915Z,3.30
2018-06-04T17:34:08.313Z,4.73
2018-06-04T17:36:36.347Z,4.77
2018-06-04T17:39:06.937Z,5.20
2018-06-04T17:41:35.512Z,5.20
2018-06-04T17:44:03.719Z,4.30
2018-06-04T17:46:32.464Z,3.97
2018-06-04T17:49:00.586Z,4.60
2018-06-04T17:51:28.896Z,4.70
2018-06-04T17:53:57.002Z,4.10
2018-06-04T17:56:25.135Z,6.40
2018-06-04T17:58:53.064Z,6.30
2018-06-04T18:01:21.192Z,7.30
2018-06-04T18:03:49.367Z,6.90
2018-06-04T18:06:17.458Z,6.90
2018-06-04T18:08:45.624Z,6.57
2018-06-04T18:11:13.699Z,6.80
2018-06-04T18:13:42.160Z,6.43
2018-06-04T18:16:10.480Z,5.20
2018-06-04T18:18:38.859Z,6.57
2018-06-04T18:21:06.904Z,6.40
2018-06-04T18:23:35.055Z,6.50
2018-06-04T18:26:03.155Z,6.80
2018-06-04T18:28:31.293Z,6.50
2018-06-04T18:30:59.467Z,6.33
2018-06-04T18:33:27.769Z,6.67
2018-06-04T18:35:55.973Z,6.23
2018-06-04T18:38:24.159Z,7.53
2018-06-04T18:40:52.366Z,6.10
2018-06-04T18:43:20.579Z,4.40
2018-06-04T18:45:49.173Z,6.27
2018-06-04T18:48:17.293Z,6.17
2018-06-04T18:50:45.506Z,5.87
2018-06-04T18:53:13.707Z,5.73
2018-06-04T18:55:41.887Z,4.80
2018-06-04T18:58:10.078Z,4.20
2018-06-04T19:00:38.228Z,6.23
2018-06-04T19:03:06.374Z,4.67
2018-06-04T19:05:34.383Z,4.50
2018-06-04T19:08:02.431Z,6.43
2018-06-04T19:10:30.661Z,7.00
2018-06-04T19:12:58.915Z,6.80
2018-06-04T19:15:27.040Z,6.13
2018-06-04T19:17:55.169Z,5.37
2018-06-04T19:20:23.365Z,5.83
2018-06-04T19:22:51.542Z,7.53
2018-06-04T19:25:19.956Z,6.73
2018-06-04T19:27:48.213Z,5.13
2018-06-04T19:30:16.143Z,6.10
2018-06-04T19:32:44.123Z,7.20
2018-06-04T19:35:12.320Z,8.00
2018-06-04T19:37:40.419Z,7.13
2018-06-04T19:40:08.602Z,6.90
2018-06-04T19:42:36.676Z,7.00
2018-06-04T19:45:04.988Z,6.67
2018-06-04T19:47:32.999Z,6.23
2018-06-04T19:50:01.099Z,6.13
2018-06-04T19:52:29.185Z,6.07
2018-06-04T19:54:57.275Z,6.50
2018-06-04T19:57:25.308Z,6.30
2018-06-04T19:59:54.092Z,6.43
2018-06-04T20:02:22.291Z,6.23
2018-06-04T20:04:50.455Z,6.10
2018-06-04T20:07:18.543Z,6.33
2018-06-04T20:09:46.585Z,5.93
2018-06-04T20:12:14.625Z,5.47
2018-06-04T20:14:42.755Z,6.43
2018-06-04T20:17:10.894Z,6.40
2018-06-04T20:19:39.003Z,6.77
2018-06-04T20:22:07.224Z,6.00
2018-06-04T20:24:35.562Z,5.23
2018-06-04T20:27:03.716Z,4.60
2018-06-04T20:29:31.729Z,4.90
2018-06-04T20:31:59.913Z,5.00
2018-06-04T20:34:28.160Z,4.53
2018-06-04T20:36:56.411Z,4.63
2018-06-04T20:39:24.509Z,5.93
2018-06-04T20:41:52.711Z,5.93
2018-06-04T20:44:20.757Z,6.00
2018-06-04T20:46:48.761Z,6.13
2018-06-04T20:49:16.923Z,5.70
2018-06-04T20:51:44.980Z,6.47
2018-06-04T20:54:13.091Z,6.30
2018-06-04T20:56:41.231Z,5.57
2018-06-04T20:59:09.383Z,5.57
2018-06-04T21:01:37.574Z,6.00
2018-06-04T21:04:05.579Z,5.53
2018-06-04T21:06:33.751Z,5.80
2018-06-04T21:09:01.828Z,5.43
2018-06-04T21:11:29.958Z,5.40
2018-06-04T21:13:58.352Z,5.20
2018-06-04T21:16:26.357Z,5.40
2018-06-04T21:18:54.600Z,5.70
2018-06-04T21:21:22.594Z,5.10
2018-06-04T21:23:50.786Z,4.97
2018-06-04T21:26:19.026Z,4.93
2018-06-04T21:28:47.193Z,4.97
2018-06-04T21:31:15.548Z,4.50
2018-06-04T21:33:43.648Z,4.67
2018-06-04T21:36:11.797Z,5.57
2018-06-04T21:38:40.129Z,5.23
2018-06-04T21:41:08.203Z,5.77
2018-06-04T21:43:36.339Z,5.03
2018-06-04T21:46:04.384Z,5.00
2018-06-04T21:48:32.530Z,6.00
2018-06-04T21:51:00.733Z,5.83
2018-06-04T21:53:28.981Z,5.90
2018-06-04T21:55:57.057Z,5.07
2018-06-04T21:58:25.153Z,5.10
2018-06-04T22:00:53.296Z,5.33
2018-06-04T22:03:21.388Z,4.60
2018-06-04T22:05:49.587Z,5.03
2018-06-04T22:08:17.805Z,5.00
2018-06-04T22:10:45.834Z,4.93
2018-06-04T22:13:14.103Z,5.10
2018-06-04T22:15:42.861Z,5.07
2018-06-04T22:18:11.105Z,5.20
2018-06-04T22:20:39.205Z,4.97
2018-06-04T22:23:07.302Z,4.77
2018-06-04T22:25:35.513Z,4.77
2018-06-04T22:28:03.755Z,4.70
2018-06-04T22:30:31.838Z,4.90
2018-06-04T22:33:00.013Z,4.93
2018-06-04T22:35:28.127Z,4.47
2018-06-04T22:37:56.254Z,4.80
2018-06-04T22:40:24.439Z,4.90
2018-06-04T22:42:52.591Z,5.10
2018-06-04T22:45:20.720Z,4.90
2018-06-04T22:47:48.896Z,4.83
2018-06-04T22:50:17.119Z,5.20
2018-06-04T22:52:45.310Z,4.80
2018-06-04T22:55:13.511Z,4.90
2018-06-04T22:57:41.595Z,4.57
2018-06-04T23:00:10.273Z,4.73
2018-06-04T23:02:38.484Z,4.80
2018-06-04T23:05:06.723Z,4.70
2018-06-04T23:07:34.893Z,4.93
2018-06-04T23:10:03.218Z,4.97
2018-06-04T23:12:31.334Z,4.77
2018-06-04T23:14:59.520Z,5.17
2018-06-04T23:17:27.661Z,5.00
2018-06-04T23:19:55.776Z,5.30
2018-06-04T23:22:23.984Z,4.10
2018-06-04T23:24:52.182Z,5.20
2018-06-04T23:27:20.395Z,5.87
2018-06-04T23:29:48.560Z,7.00
2018-06-04T23:34:51.243Z,6.53
2018-06-04T23:37:19.473Z,5.63
2018-06-04T23:39:47.611Z,5.17
2018-06-04T23:42:15.765Z,5.27
2018-06-04T23:44:43.960Z,5.00
2018-06-04T23:47:12.152Z,5.40
2018-06-04T23:49:40.369Z,4.67
2018-06-04T23:52:08.555Z,5.07
2018-06-04T23:54:36.748Z,5.50
2018-06-04T23:58:07.494Z,5.67
